createdAt,value
2019-03-16T00:00:52.305Z,7.66
2019-03-16T00:01:57.442Z,7.66
2019-03-16T00:02:53.290Z,7.67
2019-03-16T00:03:52.304Z,7.66
2019-03-16T00:04:52.262Z,7.67
2019-03-16T00:05:52.324Z,7.67
2019-03-16T00:06:52.265Z,7.73
2019-03-16T00:07:52.291Z,7.66
2019-03-16T00:08:52.195Z,7.66
2019-03-16T00:09:52.224Z,7.66
2019-03-16T00:10:53.376Z,7.73
2019-03-16T00:11:52.296Z,7.63
2019-03-16T00:12:52.163Z,7.63
2019-03-16T00:13:52.211Z,7.73
2019-03-16T00:14:52.215Z,7.72
2019-03-16T00:15:52.125Z,7.72
2019-03-16T00:16:52.124Z,7.76
2019-03-16T00:17:52.105Z,7.72
2019-03-16T00:18:52.093Z,7.72
2019-03-16T00:19:52.152Z,7.69
2019-03-16T00:20:52.065Z,7.61
2019-03-16T00:21:52.075Z,7.69
2019-03-16T00:22:52.032Z,7.67
2019-03-16T00:23:52.072Z,7.61
2019-03-16T00:24:52.024Z,7.66
2019-03-16T00:25:52.087Z,7.63
2019-03-16T00:26:51.994Z,7.67
2019-03-16T00:27:52.003Z,7.73
2019-03-16T00:28:51.985Z,7.67
2019-03-16T00:29:51.975Z,7.72
2019-03-16T00:30:53.136Z,7.72
2019-03-16T00:31:52.015Z,7.63
2019-03-16T00:32:51.935Z,7.63
2019-03-16T00:33:51.941Z,7.67
2019-03-16T00:34:51.924Z,7.56
2019-03-16T00:35:51.902Z,7.66
2019-03-16T00:36:51.916Z,7.70
2019-03-16T00:37:51.944Z,7.60
2019-03-16T00:38:52.069Z,7.61
2019-03-16T00:39:52.075Z,7.60
2019-03-16T00:40:51.862Z,7.66
2019-03-16T00:41:51.953Z,7.61
2019-03-16T00:42:51.828Z,7.67
2019-03-16T00:43:51.907Z,7.66
2019-03-16T00:44:51.802Z,7.73
2019-03-16T00:45:51.792Z,7.66
2019-03-16T00:46:51.811Z,7.69
2019-03-16T00:47:51.813Z,7.58
2019-03-16T00:48:51.752Z,7.67
2019-03-16T00:49:51.902Z,7.61
2019-03-16T00:50:51.732Z,7.69
2019-03-16T00:51:51.724Z,7.70
2019-03-16T00:52:51.771Z,7.69
2019-03-16T00:53:51.762Z,7.63
2019-03-16T00:54:51.695Z,7.60
2019-03-16T00:55:52.072Z,7.66
2019-03-16T00:56:51.683Z,7.60
2019-03-16T00:57:51.665Z,7.58
2019-03-16T00:58:51.644Z,7.58
2019-03-16T00:59:51.675Z,7.72
2019-03-16T01:00:51.659Z,7.69
2019-03-16T01:01:51.726Z,7.69
2019-03-16T01:02:51.605Z,7.63
2019-03-16T01:03:51.626Z,7.63
2019-03-16T01:04:51.633Z,7.60
2019-03-16T01:05:51.626Z,7.61
2019-03-16T01:06:51.565Z,7.70
2019-03-16T01:07:51.744Z,7.72
2019-03-16T01:08:51.584Z,7.67
2019-03-16T01:09:51.525Z,7.69
2019-03-16T01:10:51.543Z,7.63
2019-03-16T01:11:51.626Z,7.67
2019-03-16T01:12:51.495Z,7.61
2019-03-16T01:13:51.563Z,7.57
2019-03-16T01:14:51.594Z,7.72
2019-03-16T01:15:51.473Z,7.57
2019-03-16T01:16:51.495Z,7.57
2019-03-16T01:17:51.444Z,7.69
2019-03-16T01:18:51.497Z,7.72
2019-03-16T01:19:51.503Z,7.61
2019-03-16T01:20:51.464Z,7.63
2019-03-16T01:21:51.384Z,7.60
2019-03-16T01:22:51.382Z,7.58
2019-03-16T01:23:51.366Z,7.63
2019-03-16T01:24:51.423Z,7.61
2019-03-16T01:25:51.425Z,7.60
2019-03-16T01:26:51.334Z,7.47
2019-03-16T01:27:51.525Z,7.69
2019-03-16T01:28:51.323Z,7.57
2019-03-16T01:29:51.322Z,7.63
2019-03-16T01:30:51.330Z,7.72
2019-03-16T01:31:51.356Z,7.60
2019-03-16T01:32:51.305Z,7.58
2019-03-16T01:33:51.410Z,7.69
2019-03-16T01:34:51.284Z,7.57
2019-03-16T01:35:51.244Z,7.61
2019-03-16T01:36:51.504Z,7.60
2019-03-16T01:37:51.325Z,7.60
2019-03-16T01:38:51.296Z,7.58
2019-03-16T01:39:51.216Z,7.61
2019-03-16T01:40:51.174Z,7.63
2019-03-16T01:41:51.165Z,7.66
2019-03-16T01:42:51.203Z,7.57
2019-03-16T01:43:51.355Z,7.54
2019-03-16T01:44:51.155Z,7.63
2019-03-16T01:45:51.162Z,7.61
2019-03-16T01:46:51.156Z,7.58
2019-03-16T01:47:51.114Z,7.54
2019-03-16T01:48:51.104Z,7.61
2019-03-16T01:49:51.175Z,7.58
2019-03-16T01:50:51.112Z,7.63
2019-03-16T01:51:51.062Z,7.58
2019-03-16T01:52:51.275Z,7.73
2019-03-16T01:53:51.052Z,7.56
2019-03-16T01:54:51.043Z,7.58
2019-03-16T01:55:51.113Z,7.66
2019-03-16T01:56:51.025Z,7.57
2019-03-16T01:57:51.026Z,7.54
2019-03-16T01:58:51.174Z,7.56
2019-03-16T01:59:50.986Z,7.69
2019-03-16T02:00:51.012Z,7.69
2019-03-16T02:01:51.065Z,7.57
2019-03-16T02:02:55.665Z,7.69
2019-03-16T02:03:52.011Z,7.57
2019-03-16T02:04:50.945Z,7.63
2019-03-16T02:05:50.946Z,7.69
2019-03-16T02:06:50.915Z,7.66
2019-03-16T02:07:50.994Z,7.57
2019-03-16T02:08:51.026Z,7.70
2019-03-16T02:09:50.883Z,7.57
2019-03-16T02:10:50.865Z,7.58
2019-03-16T02:11:50.864Z,7.56
2019-03-16T02:12:50.965Z,7.67
2019-03-16T02:13:50.895Z,7.67
2019-03-16T02:14:50.864Z,7.70
2019-03-16T02:15:50.856Z,7.61
2019-03-16T02:16:50.963Z,7.56
2019-03-16T02:17:50.775Z,7.57
2019-03-16T02:18:50.768Z,7.60
2019-03-16T02:19:50.834Z,7.58
2019-03-16T02:20:50.755Z,7.53
2019-03-16T02:21:50.797Z,7.63
2019-03-16T02:22:50.716Z,7.57
2019-03-16T02:23:50.763Z,7.60
2019-03-16T02:24:50.805Z,7.51
2019-03-16T02:25:50.762Z,7.57
2019-03-16T02:26:50.665Z,7.69
2019-03-16T02:27:50.673Z,7.56
2019-03-16T02:28:50.692Z,7.61
2019-03-16T02:29:50.712Z,7.58
2019-03-16T02:30:50.655Z,7.58
2019-03-16T02:31:50.732Z,7.67
2019-03-16T02:32:50.636Z,7.60
2019-03-16T02:33:50.613Z,7.57
2019-03-16T02:34:50.599Z,7.66
2019-03-16T02:35:50.585Z,7.57
2019-03-16T02:36:50.586Z,7.63
2019-03-16T02:37:50.633Z,7.61
2019-03-16T02:38:50.569Z,7.61
2019-03-16T02:39:50.534Z,7.57
2019-03-16T02:40:50.654Z,7.54
2019-03-16T02:41:50.553Z,7.67
2019-03-16T02:42:50.506Z,7.57
2019-03-16T02:43:50.563Z,7.70
2019-03-16T02:44:50.484Z,7.56
2019-03-16T02:45:50.548Z,7.51
2019-03-16T02:46:50.492Z,7.63
2019-03-16T02:47:50.485Z,7.58
2019-03-16T02:48:50.485Z,7.58
2019-03-16T02:49:50.776Z,7.53
2019-03-16T02:50:50.476Z,7.63
2019-03-16T02:51:50.410Z,7.53
2019-03-16T02:52:50.409Z,7.54
2019-03-16T02:53:50.437Z,7.53
2019-03-16T02:54:50.503Z,7.67
2019-03-16T02:55:50.435Z,7.66
2019-03-16T02:56:50.423Z,7.61
2019-03-16T02:57:50.380Z,7.54
2019-03-16T02:58:50.373Z,7.61
2019-03-16T02:59:50.550Z,7.53
2019-03-16T03:00:50.323Z,7.63
2019-03-16T03:01:50.393Z,7.51
2019-03-16T03:02:50.415Z,7.56
2019-03-16T03:03:50.302Z,7.56
2019-03-16T03:04:50.262Z,7.53
2019-03-16T03:05:50.539Z,7.53
2019-03-16T03:06:50.247Z,7.53
2019-03-16T03:07:50.304Z,7.61
2019-03-16T03:08:50.247Z,7.61
2019-03-16T03:09:50.287Z,7.56
2019-03-16T03:10:50.275Z,7.53
2019-03-16T03:11:50.184Z,7.51
2019-03-16T03:12:50.214Z,7.51
2019-03-16T03:13:50.242Z,7.53
2019-03-16T03:14:50.152Z,7.56
2019-03-16T03:15:50.173Z,7.56
2019-03-16T03:16:50.317Z,7.57
2019-03-16T03:17:50.175Z,7.54
2019-03-16T03:18:50.379Z,7.56
2019-03-16T03:19:50.240Z,7.51
2019-03-16T03:20:50.083Z,7.48
2019-03-16T03:21:50.217Z,7.56
2019-03-16T03:22:50.094Z,7.48
2019-03-16T03:23:50.045Z,7.54
2019-03-16T03:24:50.096Z,7.54
2019-03-16T03:25:50.110Z,7.53
2019-03-16T03:26:50.028Z,7.54
2019-03-16T03:27:50.004Z,7.56
2019-03-16T03:28:50.044Z,7.50
2019-03-16T03:29:49.974Z,7.43
2019-03-16T03:30:49.973Z,7.54
2019-03-16T03:31:50.062Z,7.51
2019-03-16T03:32:49.946Z,7.58
2019-03-16T03:34:00.525Z,7.54
2019-03-16T03:34:50.933Z,7.57
2019-03-16T03:35:49.915Z,7.45
2019-03-16T03:36:49.904Z,7.53
2019-03-16T03:37:50.080Z,7.51
2019-03-16T03:38:49.894Z,7.57
2019-03-16T03:39:49.873Z,7.42
2019-03-16T03:40:49.847Z,7.53
2019-03-16T03:41:49.853Z,7.57
2019-03-16T03:42:49.867Z,7.54
2019-03-16T03:43:50.184Z,7.47
2019-03-16T03:44:49.886Z,7.56
2019-03-16T03:45:50.124Z,7.53
2019-03-16T03:46:50.068Z,7.51
2019-03-16T03:47:49.793Z,7.57
2019-03-16T03:48:49.773Z,7.57
2019-03-16T03:49:49.815Z,7.54
2019-03-16T03:50:49.752Z,7.48
2019-03-16T03:51:49.743Z,7.53
2019-03-16T03:52:49.723Z,7.54
2019-03-16T03:53:49.776Z,7.39
2019-03-16T03:54:49.738Z,7.57
2019-03-16T03:55:49.963Z,7.40
2019-03-16T03:56:49.696Z,7.48
2019-03-16T03:57:49.677Z,7.50
2019-03-16T03:58:49.705Z,7.56
2019-03-16T03:59:49.655Z,7.50
2019-03-16T04:00:49.660Z,7.42
2019-03-16T04:01:49.693Z,7.43
2019-03-16T04:02:50.025Z,7.38
2019-03-16T04:03:49.605Z,7.54
2019-03-16T04:04:49.675Z,7.45
2019-03-16T04:05:49.733Z,7.39
2019-03-16T04:06:49.606Z,7.39
2019-03-16T04:07:49.654Z,7.43
2019-03-16T04:08:49.583Z,7.42
2019-03-16T04:09:49.563Z,7.42
2019-03-16T04:10:49.525Z,7.42
2019-03-16T04:11:49.556Z,7.45
2019-03-16T04:12:49.507Z,7.56
2019-03-16T04:13:49.552Z,7.47
2019-03-16T04:14:49.533Z,7.53
2019-03-16T04:15:49.482Z,7.40
2019-03-16T04:16:49.474Z,7.39
2019-03-16T04:17:49.487Z,7.45
2019-03-16T04:18:51.691Z,7.51
2019-03-16T04:19:49.503Z,7.43
2019-03-16T04:20:49.435Z,7.54
2019-03-16T04:21:49.407Z,7.42
2019-03-16T04:22:49.403Z,7.42
2019-03-16T04:23:49.385Z,7.50
2019-03-16T04:24:49.378Z,7.42
2019-03-16T04:25:49.472Z,7.39
2019-03-16T04:26:49.349Z,7.43
2019-03-16T04:27:49.452Z,7.43
2019-03-16T04:28:49.374Z,7.43
2019-03-16T04:29:49.304Z,7.51
2019-03-16T04:30:49.306Z,7.43
2019-03-16T04:31:49.378Z,7.39
2019-03-16T04:32:49.483Z,7.42
2019-03-16T04:33:49.284Z,7.43
2019-03-16T04:34:49.306Z,7.45
2019-03-16T04:35:49.272Z,7.39
2019-03-16T04:36:49.246Z,7.43
2019-03-16T04:37:49.313Z,7.48
2019-03-16T04:38:49.246Z,7.48
2019-03-16T04:39:49.224Z,7.48
2019-03-16T04:40:49.277Z,7.38
2019-03-16T04:41:49.193Z,7.42
2019-03-16T04:42:49.206Z,7.39
2019-03-16T04:43:49.665Z,7.53
2019-03-16T04:44:49.172Z,7.48
2019-03-16T04:45:49.177Z,7.47
2019-03-16T04:46:49.233Z,7.39
2019-03-16T04:47:49.104Z,7.40
2019-03-16T04:48:49.152Z,7.42
2019-03-16T04:49:49.175Z,7.48
2019-03-16T04:50:49.157Z,7.50
2019-03-16T04:51:49.084Z,7.47
2019-03-16T04:52:51.106Z,7.38
2019-03-16T04:53:49.044Z,7.42
2019-03-16T04:54:49.043Z,7.38
2019-03-16T04:55:49.103Z,7.43
2019-03-16T04:56:49.016Z,7.47
2019-03-16T04:57:49.003Z,7.48
2019-03-16T04:58:51.540Z,7.39
2019-03-16T04:59:49.396Z,7.36
2019-03-16T05:00:49.094Z,7.50
2019-03-16T05:01:49.103Z,7.50
2019-03-16T05:02:48.964Z,7.47
2019-03-16T05:03:48.943Z,7.40
2019-03-16T05:04:48.935Z,7.42
2019-03-16T05:05:48.922Z,7.45
2019-03-16T05:06:48.936Z,7.39
2019-03-16T05:07:48.978Z,7.45
2019-03-16T05:08:49.115Z,7.35
2019-03-16T05:09:48.875Z,7.38
2019-03-16T05:10:48.914Z,7.47
2019-03-16T05:11:48.905Z,7.40
2019-03-16T05:12:48.834Z,7.53
2019-03-16T05:13:49.132Z,7.42
2019-03-16T05:14:48.832Z,7.47
2019-03-16T05:15:50.854Z,7.42
2019-03-16T05:16:50.557Z,7.42
2019-03-16T05:17:48.812Z,7.38
2019-03-16T05:18:48.816Z,7.42
2019-03-16T05:19:48.915Z,7.47
2019-03-16T05:20:53.765Z,7.39
2019-03-16T05:21:49.804Z,7.43
2019-03-16T05:22:48.796Z,7.50
2019-03-16T05:23:49.084Z,7.35
2019-03-16T05:24:48.978Z,7.39
2019-03-16T05:25:48.965Z,7.39
2019-03-16T05:26:48.683Z,7.42
2019-03-16T05:27:48.724Z,7.36
2019-03-16T05:28:48.663Z,7.36
2019-03-16T05:29:48.835Z,7.45
2019-03-16T05:30:48.693Z,7.42
2019-03-16T05:31:50.634Z,7.39
2019-03-16T05:32:48.623Z,7.38
2019-03-16T05:33:50.715Z,7.36
2019-03-16T05:34:56.556Z,7.38
2019-03-16T05:35:49.628Z,7.42
2019-03-16T05:36:48.765Z,7.36
2019-03-16T05:37:49.219Z,7.47
2019-03-16T05:38:48.594Z,7.38
2019-03-16T05:39:48.843Z,7.45
2019-03-16T05:40:48.875Z,7.43
2019-03-16T05:41:50.234Z,7.43
2019-03-16T05:42:50.175Z,7.45
2019-03-16T05:43:48.613Z,7.40
2019-03-16T05:44:48.515Z,7.39
2019-03-16T05:45:49.024Z,7.40
2019-03-16T05:46:55.667Z,7.39
2019-03-16T05:47:50.254Z,7.40
2019-03-16T05:48:49.055Z,7.38
2019-03-16T05:49:48.514Z,7.40
2019-03-16T05:50:53.425Z,7.51
2019-03-16T05:51:48.493Z,7.36
2019-03-16T05:52:48.413Z,7.42
2019-03-16T05:53:49.105Z,7.42
2019-03-16T05:54:55.275Z,7.47
2019-03-16T05:55:49.476Z,7.45
2019-03-16T05:56:48.375Z,7.40
2019-03-16T05:57:48.366Z,7.38
2019-03-16T05:58:48.665Z,7.53
2019-03-16T05:59:54.284Z,7.42
2019-03-16T06:00:49.324Z,7.47
2019-03-16T06:01:48.355Z,7.35
2019-03-16T06:02:48.293Z,7.43
2019-03-16T06:03:50.516Z,7.43
2019-03-16T06:04:48.275Z,7.48
2019-03-16T06:05:48.242Z,7.42
2019-03-16T06:06:48.805Z,7.47
2019-03-16T06:07:48.404Z,7.50
2019-03-16T06:08:48.825Z,7.48
2019-03-16T06:09:48.504Z,7.42
2019-03-16T06:10:52.765Z,7.39
2019-03-16T06:11:48.324Z,7.38
2019-03-16T06:12:48.244Z,7.43
2019-03-16T06:13:48.443Z,7.43
2019-03-16T06:14:48.273Z,7.43
2019-03-16T06:15:49.065Z,7.39
2019-03-16T06:16:48.294Z,7.39
2019-03-16T06:17:48.686Z,7.51
2019-03-16T06:18:49.096Z,7.50
2019-03-16T06:19:51.606Z,7.54
2019-03-16T06:20:50.835Z,7.51
2019-03-16T06:21:48.192Z,7.45
2019-03-16T06:22:48.074Z,7.51
2019-03-16T06:23:48.174Z,7.45
2019-03-16T06:24:48.599Z,7.54
2019-03-16T06:25:49.506Z,7.42
2019-03-16T06:26:51.404Z,7.53
2019-03-16T06:27:53.234Z,7.51
2019-03-16T06:28:49.576Z,7.53
2019-03-16T06:29:48.106Z,7.51
2019-03-16T06:30:51.745Z,7.51
2019-03-16T06:31:48.024Z,7.50
2019-03-16T06:32:48.617Z,7.53
2019-03-16T06:33:47.984Z,7.56
2019-03-16T06:34:47.987Z,7.56
2019-03-16T06:35:49.074Z,7.61
2019-03-16T06:36:47.917Z,7.60
2019-03-16T06:37:47.972Z,7.53
2019-03-16T06:38:48.595Z,7.60
2019-03-16T06:39:47.884Z,7.58
2019-03-16T06:40:51.037Z,7.60
2019-03-16T06:41:48.371Z,7.61
2019-03-16T06:42:47.864Z,7.69
2019-03-16T06:43:47.915Z,7.57
2019-03-16T06:44:48.054Z,7.56
2019-03-16T06:45:47.846Z,7.57
2019-03-16T06:46:47.866Z,7.61
2019-03-16T06:47:47.943Z,7.67
2019-03-16T06:48:47.923Z,7.72
2019-03-16T06:49:48.888Z,7.69
2019-03-16T06:50:51.899Z,7.72
2019-03-16T06:51:47.824Z,7.72
2019-03-16T06:52:48.162Z,7.72
2019-03-16T06:53:47.752Z,7.72
2019-03-16T06:54:47.753Z,7.72
2019-03-16T06:55:48.636Z,7.69
2019-03-16T06:56:47.976Z,7.67
2019-03-16T06:57:47.725Z,7.66
2019-03-16T06:58:48.324Z,7.67
2019-03-16T06:59:47.665Z,7.67
2019-03-16T07:00:53.225Z,7.60
2019-03-16T07:01:48.753Z,7.67
2019-03-16T07:02:47.654Z,7.73
2019-03-16T07:03:47.664Z,7.73
2019-03-16T07:04:48.944Z,7.76
2019-03-16T07:05:48.588Z,7.77
2019-03-16T07:06:54.906Z,7.76
2019-03-16T07:07:48.674Z,7.79
2019-03-16T07:08:47.575Z,7.76
2019-03-16T07:09:47.896Z,7.76
2019-03-16T07:10:51.185Z,7.76
2019-03-16T07:11:47.526Z,7.75
2019-03-16T07:12:47.549Z,7.79
2019-03-16T07:13:48.965Z,7.76
2019-03-16T07:14:52.886Z,7.72
2019-03-16T07:15:48.493Z,7.75
2019-03-16T07:17:01.129Z,7.79
2019-03-16T07:17:49.575Z,7.75
2019-03-16T07:18:58.638Z,7.77
2019-03-16T07:19:48.512Z,7.79
2019-03-16T07:20:47.424Z,7.75
2019-03-16T07:21:47.422Z,7.79
2019-03-16T07:22:48.626Z,7.76
2019-03-16T07:23:47.436Z,7.77
2019-03-16T07:24:47.394Z,7.82
2019-03-16T07:25:47.494Z,7.79
2019-03-16T07:26:47.685Z,7.79
2019-03-16T07:27:53.904Z,7.79
2019-03-16T07:28:48.484Z,7.79
2019-03-16T07:29:47.440Z,7.75
2019-03-16T07:30:50.915Z,7.77
2019-03-16T07:31:50.888Z,7.77
2019-03-16T07:32:47.287Z,7.82
2019-03-16T07:33:47.295Z,7.77
2019-03-16T07:34:47.314Z,7.80
2019-03-16T07:35:48.331Z,7.76
2019-03-16T07:36:47.936Z,7.77
2019-03-16T07:37:47.312Z,7.80
2019-03-16T07:38:47.432Z,7.79
2019-03-16T07:39:48.035Z,7.88
2019-03-16T07:40:53.856Z,7.91
2019-03-16T07:41:48.458Z,7.82
2019-03-16T07:42:47.185Z,7.85
2019-03-16T07:43:47.565Z,7.93
2019-03-16T07:44:51.134Z,7.91
2019-03-16T07:45:48.606Z,7.85
2019-03-16T07:46:47.132Z,7.90
2019-03-16T07:47:47.132Z,7.82
2019-03-16T07:48:47.124Z,7.90
2019-03-16T07:49:52.795Z,7.82
2019-03-16T07:50:52.908Z,7.80
2019-03-16T07:51:47.128Z,7.90
2019-03-16T07:52:47.125Z,7.83
2019-03-16T07:53:48.565Z,7.87
2019-03-16T07:54:47.104Z,7.85
2019-03-16T07:55:47.112Z,7.83
2019-03-16T07:56:47.024Z,7.88
2019-03-16T07:57:47.063Z,7.82
2019-03-16T07:58:47.014Z,7.88
2019-03-16T07:59:53.342Z,7.83
2019-03-16T08:00:48.082Z,7.83
2019-03-16T08:01:47.027Z,7.85
2019-03-16T08:02:49.604Z,7.88
2019-03-16T08:03:50.855Z,7.85
2019-03-16T08:04:46.982Z,7.87
2019-03-16T08:05:48.005Z,7.85
2019-03-16T08:06:47.381Z,7.93
2019-03-16T08:07:46.903Z,7.83
2019-03-16T08:08:49.405Z,7.87
2019-03-16T08:09:58.075Z,7.83
2019-03-16T08:10:52.852Z,7.82
2019-03-16T08:11:46.863Z,7.83
2019-03-16T08:12:52.913Z,7.85
2019-03-16T08:13:47.840Z,7.83
2019-03-16T08:14:46.865Z,7.85
2019-03-16T08:15:46.821Z,7.88
2019-03-16T08:16:47.151Z,7.90
2019-03-16T08:17:46.803Z,7.91
2019-03-16T08:18:46.882Z,7.91
2019-03-16T08:19:49.543Z,7.83
2019-03-16T08:20:55.683Z,7.93
2019-03-16T08:21:53.354Z,7.91
2019-03-16T08:22:50.805Z,7.91
2019-03-16T08:23:53.793Z,7.94
2019-03-16T08:24:48.202Z,7.85
2019-03-16T08:25:47.926Z,7.93
2019-03-16T08:26:49.274Z,8.00
2019-03-16T08:27:54.934Z,7.85
2019-03-16T08:28:47.733Z,8.06
2019-03-16T08:29:46.712Z,7.85
2019-03-16T08:30:56.967Z,7.94
2019-03-16T08:32:00.422Z,7.97
2019-03-16T08:32:59.883Z,8.03
2019-03-16T08:33:57.023Z,7.95
2019-03-16T08:34:47.713Z,7.94
2019-03-16T08:35:48.733Z,8.00
2019-03-16T08:36:46.685Z,8.00
2019-03-16T08:37:46.622Z,7.97
2019-03-16T08:38:48.352Z,8.00
2019-03-16T08:39:50.183Z,7.95
2019-03-16T08:40:51.104Z,8.00
2019-03-16T08:41:46.843Z,8.05
2019-03-16T08:42:46.613Z,8.26
2019-03-16T08:43:47.183Z,8.37
2019-03-16T08:44:48.812Z,8.49
2019-03-16T08:45:53.323Z,8.63
2019-03-16T08:46:47.482Z,8.76
2019-03-16T08:47:49.773Z,8.87
2019-03-16T08:48:50.374Z,8.94
2019-03-16T08:49:46.451Z,8.92
2019-03-16T08:50:49.098Z,9.08
2019-03-16T08:51:51.412Z,9.16
2019-03-16T08:52:55.894Z,9.23
2019-03-16T08:53:47.471Z,9.32
2019-03-16T08:54:47.605Z,9.26
2019-03-16T08:55:48.033Z,9.39
2019-03-16T08:56:50.686Z,9.41
2019-03-16T08:57:46.648Z,9.50
2019-03-16T08:58:46.373Z,9.55
2019-03-16T08:59:49.565Z,9.55
2019-03-16T09:00:54.304Z,9.58
2019-03-16T09:01:49.773Z,9.65
2019-03-16T09:02:47.114Z,9.64
2019-03-16T09:03:47.603Z,9.72
2019-03-16T09:04:54.543Z,9.77
2019-03-16T09:05:47.653Z,9.82
2019-03-16T09:06:46.603Z,9.83
2019-03-16T09:07:52.364Z,9.83
2019-03-16T09:08:52.814Z,9.91
2019-03-16T09:09:47.223Z,9.95
2019-03-16T09:10:54.772Z,9.95
2019-03-16T09:11:58.235Z,9.97
2019-03-16T09:12:55.127Z,9.97
2019-03-16T09:13:56.562Z,10.07
2019-03-16T09:14:50.866Z,10.07
2019-03-16T09:15:51.775Z,10.16
2019-03-16T09:16:56.183Z,10.12
2019-03-16T09:17:50.814Z,10.17
2019-03-16T09:18:51.263Z,10.16
2019-03-16T09:19:56.253Z,10.17
2019-03-16T09:20:56.664Z,10.12
2019-03-16T09:21:58.453Z,10.23
2019-03-16T09:22:56.854Z,10.22
2019-03-16T09:23:48.584Z,10.17
2019-03-16T09:24:56.104Z,10.22
2019-03-16T09:25:55.924Z,10.30
2019-03-16T09:26:47.922Z,10.26
2019-03-16T09:27:53.137Z,10.26
2019-03-16T09:28:59.615Z,10.25
2019-03-16T09:29:54.764Z,10.31
2019-03-16T09:30:56.589Z,10.31
2019-03-16T09:32:02.923Z,10.26
2019-03-16T09:32:51.184Z,10.28
2019-03-16T09:33:57.333Z,10.34
2019-03-16T09:34:50.853Z,10.34
2019-03-16T09:35:51.310Z,10.37
2019-03-16T09:36:58.365Z,10.46
2019-03-16T09:37:48.332Z,10.38
2019-03-16T09:38:53.994Z,10.46
2019-03-16T09:39:54.593Z,10.51
2019-03-16T09:40:58.764Z,10.51
2019-03-16T09:41:56.134Z,10.46
2019-03-16T09:42:51.574Z,10.44
2019-03-16T09:43:54.193Z,10.44
2019-03-16T09:44:57.832Z,10.51
2019-03-16T09:45:57.274Z,10.57
2019-03-16T09:47:02.585Z,10.56
2019-03-16T09:47:53.744Z,10.54
2019-03-16T09:48:56.503Z,10.56
2019-03-16T09:49:59.014Z,10.59
2019-03-16T09:50:57.153Z,10.49
2019-03-16T09:51:55.033Z,10.53
2019-03-16T09:52:58.363Z,10.60
2019-03-16T09:53:59.484Z,10.54
2019-03-16T09:54:48.862Z,10.59
2019-03-16T09:55:54.803Z,10.63
2019-03-16T09:57:00.683Z,10.57
2019-03-16T09:57:56.852Z,10.57
2019-03-16T09:58:58.562Z,10.64
2019-03-16T09:59:51.103Z,10.63
2019-03-16T10:00:46.873Z,10.71
2019-03-16T10:01:54.205Z,10.69
2019-03-16T10:02:52.433Z,10.69
2019-03-16T10:03:53.933Z,10.68
2019-03-16T10:04:53.323Z,10.68
2019-03-16T10:05:56.242Z,10.64
2019-03-16T10:06:47.572Z,10.61
2019-03-16T10:07:58.192Z,10.61
2019-03-16T10:08:52.953Z,10.67
2019-03-16T10:09:48.203Z,10.69
2019-03-16T10:10:57.863Z,10.76
2019-03-16T10:11:51.872Z,10.75
2019-03-16T10:12:58.972Z,10.68
2019-03-16T10:13:53.453Z,10.71
2019-03-16T10:14:59.357Z,10.68
2019-03-16T10:15:58.532Z,10.69
2019-03-16T10:16:57.752Z,10.84
2019-03-16T10:17:54.254Z,10.76
2019-03-16T10:18:59.173Z,10.86
2019-03-16T10:19:51.852Z,10.81
2019-03-16T10:20:58.756Z,10.72
2019-03-16T10:21:52.103Z,10.76
2019-03-16T10:22:57.574Z,10.75
2019-03-16T10:23:49.653Z,10.75
2019-03-16T10:24:57.363Z,10.76
2019-03-16T10:25:59.632Z,10.76
2019-03-16T10:26:58.158Z,10.74
2019-03-16T10:27:59.233Z,10.81
2019-03-16T10:28:59.473Z,10.81
2019-03-16T10:29:54.643Z,10.89
2019-03-16T10:30:57.082Z,10.79
2019-03-16T10:31:52.902Z,10.81
2019-03-16T10:32:58.531Z,10.78
2019-03-16T10:33:51.284Z,10.87
2019-03-16T10:34:59.872Z,10.90
2019-03-16T10:35:56.496Z,10.92
2019-03-16T10:36:48.102Z,10.89
2019-03-16T10:37:58.643Z,10.90
2019-03-16T10:38:56.284Z,10.86
2019-03-16T10:39:59.462Z,10.90
2019-03-16T10:40:59.113Z,10.84
2019-03-16T10:41:58.102Z,10.87
2019-03-16T10:42:51.262Z,10.86
2019-03-16T10:43:56.383Z,10.93
2019-03-16T10:44:49.673Z,10.90
2019-03-16T10:45:58.406Z,10.89
2019-03-16T10:46:59.562Z,10.90
2019-03-16T10:47:53.677Z,10.89
2019-03-16T10:49:04.862Z,10.87
2019-03-16T10:49:47.772Z,10.89
2019-03-16T10:50:58.373Z,10.90
2019-03-16T10:51:49.682Z,10.87
2019-03-16T10:52:54.893Z,10.87
2019-03-16T10:53:55.462Z,10.90
2019-03-16T10:55:01.130Z,10.89
2019-03-16T10:55:59.119Z,10.86
2019-03-16T10:56:49.519Z,10.87
2019-03-16T10:58:00.718Z,10.87
2019-03-16T10:58:59.789Z,10.87
2019-03-16T11:00:00.769Z,10.82
2019-03-16T11:01:03.287Z,10.82
2019-03-16T11:01:53.449Z,10.84
2019-03-16T11:03:01.468Z,10.86
2019-03-16T11:04:01.509Z,10.82
2019-03-16T11:04:45.950Z,10.86
2019-03-16T11:06:01.377Z,10.81
2019-03-16T11:06:56.099Z,10.89
2019-03-16T11:08:03.010Z,10.92
2019-03-16T11:08:57.848Z,10.92
2019-03-16T11:09:47.298Z,10.79
2019-03-16T11:11:02.159Z,10.81
2019-03-16T11:11:50.749Z,10.84
2019-03-16T11:13:01.099Z,10.79
2019-03-16T11:13:48.264Z,10.82
2019-03-16T11:14:54.419Z,10.81
2019-03-16T11:15:59.638Z,10.78
2019-03-16T11:16:54.988Z,10.81
2019-03-16T11:17:58.630Z,10.90
2019-03-16T11:18:53.626Z,10.86
2019-03-16T11:19:58.938Z,10.81
2019-03-16T11:20:51.638Z,10.81
2019-03-16T11:21:58.808Z,10.84
2019-03-16T11:22:52.860Z,10.82
2019-03-16T11:23:57.269Z,10.86
2019-03-16T11:24:58.609Z,10.90
2019-03-16T11:25:57.962Z,10.86
2019-03-16T11:26:56.372Z,10.86
2019-03-16T11:27:54.952Z,10.86
2019-03-16T11:29:04.538Z,10.86
2019-03-16T11:29:57.358Z,10.89
2019-03-16T11:30:56.009Z,10.92
2019-03-16T11:31:56.330Z,10.86
2019-03-16T11:32:52.910Z,10.82
2019-03-16T11:33:55.459Z,10.86
2019-03-16T11:34:54.719Z,10.87
2019-03-16T11:35:56.142Z,10.90
2019-03-16T11:36:54.040Z,10.96
2019-03-16T11:37:52.118Z,10.84
2019-03-16T11:38:51.732Z,10.82
2019-03-16T11:39:56.712Z,10.93
2019-03-16T11:40:47.031Z,10.89
2019-03-16T11:41:53.959Z,10.96
2019-03-16T11:42:48.871Z,10.96
2019-03-16T11:43:46.951Z,10.99
2019-03-16T11:44:54.429Z,10.93
2019-03-16T11:45:54.041Z,10.94
2019-03-16T11:46:56.410Z,10.96
2019-03-16T11:47:50.998Z,10.96
2019-03-16T11:48:56.989Z,10.97
2019-03-16T11:49:56.469Z,10.99
2019-03-16T11:50:45.427Z,10.97
2019-03-16T11:51:53.129Z,10.97
2019-03-16T11:52:52.119Z,10.97
2019-03-16T11:53:54.179Z,10.92
2019-03-16T11:54:54.402Z,10.93
2019-03-16T11:55:45.378Z,10.93
2019-03-16T11:56:52.669Z,10.94
2019-03-16T11:57:54.299Z,10.99
2019-03-16T11:58:50.010Z,10.94
2019-03-16T11:59:54.739Z,11.02
2019-03-16T12:00:52.148Z,11.00
2019-03-16T12:02:04.905Z,11.02
2019-03-16T12:02:56.279Z,10.97
2019-03-16T12:03:45.277Z,11.00
2019-03-16T12:04:50.085Z,11.00
2019-03-16T12:05:48.269Z,10.99
2019-03-16T12:06:53.629Z,10.97
2019-03-16T12:07:53.470Z,11.02
2019-03-16T12:08:48.499Z,10.97
2019-03-16T12:09:50.339Z,11.00
2019-03-16T12:10:55.689Z,11.02
2019-03-16T12:11:59.268Z,10.99
2019-03-16T12:12:51.298Z,11.02
2019-03-16T12:13:57.802Z,11.05
2019-03-16T12:14:55.475Z,10.97
2019-03-16T12:15:55.549Z,10.96
2019-03-16T12:16:57.190Z,10.96
2019-03-16T12:17:55.399Z,10.97
2019-03-16T12:18:48.169Z,10.97
2019-03-16T12:19:53.499Z,11.00
2019-03-16T12:20:54.459Z,10.90
2019-03-16T12:21:49.524Z,10.96
2019-03-16T12:22:53.249Z,10.97
2019-03-16T12:23:55.283Z,10.94
2019-03-16T12:24:53.880Z,10.93
2019-03-16T12:25:53.330Z,10.94
2019-03-16T12:26:52.601Z,10.94
2019-03-16T12:27:49.508Z,10.90
2019-03-16T12:28:49.230Z,10.97
2019-03-16T12:29:55.059Z,10.94
2019-03-16T12:30:52.101Z,11.00
2019-03-16T12:31:51.810Z,10.96
2019-03-16T12:32:52.741Z,10.86
2019-03-16T12:33:56.481Z,10.89
2019-03-16T12:34:52.945Z,10.96
2019-03-16T12:35:55.833Z,10.90
2019-03-16T12:36:52.379Z,10.87
2019-03-16T12:37:52.179Z,10.90
2019-03-16T12:38:49.209Z,10.92
2019-03-16T12:39:51.990Z,10.87
2019-03-16T12:40:50.940Z,10.87
2019-03-16T12:41:47.260Z,10.90
2019-03-16T12:42:49.969Z,10.89
2019-03-16T12:43:50.549Z,10.96
2019-03-16T12:44:49.480Z,10.97
2019-03-16T12:45:50.540Z,10.97
2019-03-16T12:46:49.669Z,10.96
2019-03-16T12:47:47.752Z,10.97
2019-03-16T12:48:43.917Z,10.99
2019-03-16T12:49:44.800Z,10.97
2019-03-16T12:50:47.123Z,10.94
2019-03-16T12:51:49.090Z,10.99
2019-03-16T12:52:50.297Z,11.00
2019-03-16T12:53:47.441Z,10.96
2019-03-16T12:54:49.829Z,10.97
2019-03-16T12:55:46.220Z,10.97
2019-03-16T12:56:45.639Z,11.02
2019-03-16T12:57:48.549Z,11.02
2019-03-16T12:58:49.630Z,11.02
2019-03-16T12:59:48.439Z,11.00
2019-03-16T13:00:48.471Z,11.04
2019-03-16T13:01:47.111Z,11.04
2019-03-16T13:02:48.660Z,10.97
2019-03-16T13:03:50.313Z,11.07
2019-03-16T13:04:45.381Z,11.05
2019-03-16T13:05:43.987Z,11.05
2019-03-16T13:06:45.222Z,11.04
2019-03-16T13:07:47.001Z,11.07
2019-03-16T13:08:45.389Z,11.04
2019-03-16T13:09:43.662Z,11.02
2019-03-16T13:10:46.833Z,11.02